EGPA

Kirkwall Airport

Orkney Islands, United Kingdom
METAR EGPA 221750Z 27012KT 9999 -RA FEW009 SCT020 BKN038 08/07 Q0998
Observed Flight Rules
Apr-22 @ 17:50 UTC (30 minutes ago) Visual Flight Rules
Wind Visibility Clouds Conditions
270° at 12 knots 10,000+ meters
  • Few at 900' AGL
  • Scattered at 2,000' AGL
  • Broken at 3,800' AGL
  • Light Rain
Temperatures Readings
Current 8°C / 46°F
Dewpoint 7°C / 45°F
Humidity 93%
Altimeter 29.47" Hg
Pressure 998 hPa
Elevation 21
METAR EGPA 221750Z 27012KT 9999 -RA FEW009 SCT020 BKN038 08/07 Q0998
Observed Flight Rules
Apr-22 @ 17:50 UTC
(30 minutes ago)
VFR
Wind Visibility
270° at 12 knots 10,000+ meters
Clouds
  • Few at 900' AGL
  • Scattered at 2,000' AGL
  • Broken at 3,800' AGL
Conditions
  • Light Rain
Temperature Dewpoint
8°C / 46°F 7°C / 45°F
Humidity Altimeter Pressure
93% 29.47" Hg 998 hPa